Latest METARs, TAFs and NOTAMs for LIML


---------------------------------------------------------------------------
	(OBSERVATIONS)
LIML 271750Z 09003KT 050V150 7000 -RA FEW015 BKN040 08/04 Q1014
    NOSIG=
LIML 271720Z 15005KT 9999 -RA FEW015 BKN040 09/03 Q1014 NOSIG=
LIML 271650Z 15006KT 9999 BKN050 09/03 Q1014 NOSIG=
LIML 271620Z 15005KT 9999 BKN050 10/01 Q1014 NOSIG=
LIML 271550Z 16005KT 9999 BKN050 10/02 Q1014 NOSIG=
LIML 271520Z 14004KT 080V180 9999 BKN050 10/02 Q1014 NOSIG=
---------------------------------------------------------------------------
	(FC)
Sorry, FC For LIML Not Found
---------------------------------------------------------------------------
	(TERMINAL AREA FORECAST)
LIML 271700Z 2718/2818 10007KT 9999 BKN012 BKN050 TEMPO 2719/2807
    RA=
---------------------------------------------------------------------------
	(NOTAMS)


LIML A0164/17 GENOVA NDB 'GEN' FREQ 318.00KHZ UNSERVICEABLE REF
    AIP AD 2 LIML 1-7. 11 JAN 11:25 2017 UNTIL 08 APR 23:59 2017
    ESTIMATED. CREATED: 11 JAN 11:25 2017

LIML A0173/17 LANDING NOT ALLOWED TO SKID-EQUIPPED HELICOPTERS
    EVEN IF PROVIDED WITH WHEELS ON BOARD. TRAFFIC NOT AFFECTED:
    MIL, STATE, HOSPITAL FLT AND HEL BASED AT LIML AD. REF AIP
    AD 2 LIML 1-14. 11 JAN 15:57 2017 UNTIL 17 MAR 11:00 2017.
    CREATED: 11 JAN 15:57 2017

LIML A0174/17 LANDING AND TKOF NOT ALLOWED TO VFR FIXED WING
    ACFT. TFC NOT AFFECTED: MIL, STATE, HUMANITARIAN AND HOSPITAL
    FLIGHT REF AIP AD 2 LIML 1-14. DAILY 0501-0900 1101-1400
    AND 1601-2200, 11 JAN 16:17 2017 UNTIL 17 MAR 22:00 2017.
    CREATED: 11 JAN 16:17 2017

LIML A0882/17 RUNWAY 17/35 CLOSED AND USED AS PARKING AREA. RMK:
    HEL/FATO NOT AFFECTED. REF AIP AD 2 LIML 2-1. 09 FEB 17:21
    2017 UNTIL 17 MAR 11:00 2017. CREATED: 09 FEB 17:22 2017

LIML A1016/17 GENOVA VOR/DME 'GEN' FREQ 112.80MHZ CH75X AVBL
    AS FLW: -VOR UNSERVICEABLE -DME OPERATIVE REF AIP AD 2 LIML
    1-7. 16 FEB 14:40 2017 UNTIL 14 MAY 23:59 2017 ESTIMATED.
    CREATED: 16 FEB 14:40 2017

LIML A1085/17 A-CDM (AIRPORT COLLABORATIVE DECISION MAKING) LIML
    (MILANO/LINATE AD) - FULL A-CDM OPERATIONS. ACCORDING TO
    THE ITALIAN CIVIL AVIATION AUTHORITY PROVISION 05/2015 AND
    AIC 19/2012 START UP PROCEDURE FOR BOTH COMMERCIAL AND GENERAL
    AVIATION CHG AS FOLLOWS: -TOBT (TARGET OFF-BLOCK TIME) MUST
    BE PROVIDED BY AIRCRAFT OPERATOR/HANDLING AGENT -IF TOBT
    (TARGET OFF-BLOCK TIME) CAN NO LONGER BE MET, AT ANY TIME,
    THEN TOBT MUST BE UPDATED BY AIRCRAFT OPERATOR/HANDLING AGENT
    -IF AT TOBT PLUS 5 MINUTES THE AIRCRAFT IS NOT READY, THEN
    TOBT MUST BE UPDATED BY AIRCRAFT OPERATOR/HANDLING AGENT,
    -WHEN HANDLING OPERATIONS ARE COMPLETED, DOORS CLOSED, LOADING
    BRIDGE, IF ANY, RETRACTED, READY TO PUSH-BACK OR TAXI, BEFORE
    REQUESTING ATC START UP CLEARENCE TO LINATE TWR ON 'GROUND
    FREQ' 121.800MHZ, PILOT MUST HAVE RECEIVED 'READY ISSUED
    FROM APRON MANAGEMENT SERVICE UNIT' FROM RAMP AGENT ACCORDING
    TO APRON MANAGEMENT SERVICE PROCEDURES INCLUDED IN CIVIL
    AVIATION AUTHORITY PROVISION 05/2015 END PART 1 OF 2. 20
    FEB 15:46 2017 UNTIL 20 MAY 23:59 2017 ESTIMATED. CREATED:
    20 FEB 15:48 2017

LIML A1085/17 -WHEN RECEIVED FROM APRON MANAGEMENT SERVICE UNIT
    RAMP AGENTS SHALL INFORM PILOTS ABOUT READY ISSUED AND COMMUNICATE
    LAST TSAT (TARGET START UP APPROVAL TIME) -PILOTS MUST TAKE
    NOTE OF LAST TSAT RECEIVED AND COMPLY WITH IT -LINATE 'GROUND
    FREQ' ON PILOT REQUEST WILL APPROVE START UP ACCORDING TO
    TSAT AND PREVAILING TRAFFIC SITUATION -PUSH BACK AND TAXIING
    MUST BE STARTED AFTER START UP CLEARANCE (ASAT) WITHIN 3
    AND 5MIN RESPECTIVELY -A PERMANENT AND FULLY AUTOMATIC DATA
    EXCHANGE WITH THE NMOC(NETWORK MANAGER OPERATIONS CENTRE)
    WILL BE ESTABLISHED VIA DPI (DEPARTURE PLANNING INFORMATION)
    MESSAGES. THIS DATA TRANSFER WILL ENABLE HIGHLY ACCURATE
    EARLY PREDICTIONS DEPARTURE TIMES. THIS WILL ALLOW FOR MORE
    ACCURATE AND EFFICIENT CALCULATION OF THE CTOT DUE TO THE
    USE OF LOCAL TARGET TAKE-OFF TIMES.THE BASIC NMOC PROCEDURES
    CONTINUE TO APPLY. THE NMOC WILL GENERALLY TAKE THESE LOCAL
    TARGET TAKE-OFF TIMES INTO CONSIDERATION AND WILL TRY TO
    ADJUST THEM ACCORDINGLY. REF AIP AD 2 LIML 1-9/10 END PART
    2 OF 2. 20 FEB 15:46 2017 UNTIL 20 MAY 23:59 2017 ESTIMATED.
    CREATED: 20 FEB 15:48 2017

LIML A1506/16 REF AOC TYPE B NR ML 4/0 NEW OBSTACLE ERECTED CRANE
    PENETRATING INNER HORIZONTAL SURFACE PSN COORD (WGS-84):
    452707.3N 0091500.4E MAX ELEV AGL 52.0M/170.6FT MAX ELEV
    AMSL 160.0M/524.9FT ROTATING JIB 45M DAY ICAO SGL PROVIDED.
    15 MAR 00:00 2016 UNTIL PERM. CREATED: 14 MAR 16:07 2016

LIML A3860/16 REF AIP AD 2 LIML 3-1 (AOC ICAO TYPE A NR ML A1
    4/0) OBSTACLE CRANE PSN 3951.2M AFTER THR36 AND 338.9M RIGHT
    RCL ON TAKE- OFF DIRECTION, COORD (WGS-84) 452812.0N 0091643.4E
    AMSL 134.5M/441.3FT COMPLETELY WITHDRAWN. 09 JUN 07:26 2016
    UNTIL PERM. CREATED: 09 JUN 07:26 2016

LIML A7302/16 REF AOC TYPE B NR ML 4/0 NEW OBSTACLE POLE ERECTED
    PENETRATING CONICAL SURFACE PSN COORD (WGS-84): 452858.8N
    0091428.4E MAX ELEV AGL 37.6M/123.3FT MAX ELEV AMSL 155.8M/511.1FT
    ICAO SIGNAL UNPROVIDED. 17 OCT 13:54 2016 UNTIL PERM. CREATED:
    17 OCT 13:53 2016

LIML A8800/16 OBSTACLE ERECTED TWO MOBILE CRANES OPERATING IN
    THE POSITION DEFINED BY FLW POINTS (WGS-84): 452715.7N 0091551.5E
    ELEV AGL 35M/115FT ELEV AMSL 123M/403FT 452713.7N 0091552.8E
    ELEV AGL 35M/115FT ELEV AMSL 123M/403FT 452714.4N 0091554.7E
    ELEV AGL 35M/115FT ELEV AMSL 123M/403FT 452716.3N 0091553.4E
    ELEV AGL 35M/115FT ELEV AMSL 123M/403FT 452715.7N 0091551.5E
    ELEV AGL 35M/115FT ELEV AMSL 123M/403FT ICAO SIGNAL PROVIDED
    REF AOC TYPE B NR ML 4/0. 20 DEC 14:15 2016 UNTIL 28 FEB
    23:59 2017 ESTIMATED. CREATED: 20 DEC 14:15 2016

---------------------------------------------------------------------------